sensor_id;sensor_type;location;lat;lon;timestamp;P1;durP1;ratioP1;P2;durP2;ratioP2
72601;SDS011;60644;55.858;37.390;2024-02-26T00:01:41;6.15;;;1.55;;
72601;SDS011;60644;55.858;37.390;2024-02-26T00:04:09;6.30;;;1.60;;
72601;SDS011;60644;55.858;37.390;2024-02-26T00:06:35;8.18;;;1.70;;
72601;SDS011;60644;55.858;37.390;2024-02-26T00:09:01;7.63;;;1.67;;
72601;SDS011;60644;55.858;37.390;2024-02-26T00:11:28;5.57;;;1.48;;
72601;SDS011;60644;55.858;37.390;2024-02-26T00:13:53;5.68;;;1.55;;
72601;SDS011;60644;55.858;37.390;2024-02-26T00:16:19;7.57;;;1.77;;
72601;SDS011;60644;55.858;37.390;2024-02-26T00:18:45;8.23;;;1.42;;
72601;SDS011;60644;55.858;37.390;2024-02-26T00:21:11;8.20;;;1.40;;
72601;SDS011;60644;55.858;37.390;2024-02-26T00:23:37;7.72;;;1.40;;
72601;SDS011;60644;55.858;37.390;2024-02-26T00:26:02;6.47;;;1.40;;
72601;SDS011;60644;55.858;37.390;2024-02-26T00:28:29;4.35;;;1.40;;
72601;SDS011;60644;55.858;37.390;2024-02-26T00:30:54;4.87;;;1.33;;
72601;SDS011;60644;55.858;37.390;2024-02-26T00:33:21;8.32;;;1.60;;
72601;SDS011;60644;55.858;37.390;2024-02-26T00:35:48;7.93;;;1.63;;
72601;SDS011;60644;55.858;37.390;2024-02-26T00:38:14;6.28;;;1.58;;
72601;SDS011;60644;55.858;37.390;2024-02-26T00:40:40;8.90;;;1.90;;
72601;SDS011;60644;55.858;37.390;2024-02-26T00:43:08;6.40;;;1.60;;
72601;SDS011;60644;55.858;37.390;2024-02-26T00:45:34;5.13;;;1.40;;
72601;SDS011;60644;55.858;37.390;2024-02-26T00:48:00;6.20;;;1.63;;
72601;SDS011;60644;55.858;37.390;2024-02-26T00:50:33;5.20;;;1.27;;
72601;SDS011;60644;55.858;37.390;2024-02-26T00:52:59;5.78;;;1.70;;
72601;SDS011;60644;55.858;37.390;2024-02-26T00:55:27;5.57;;;0.93;;
72601;SDS011;60644;55.858;37.390;2024-02-26T00:57:53;10.90;;;1.77;;
72601;SDS011;60644;55.858;37.390;2024-02-26T01:00:19;6.38;;;1.40;;
72601;SDS011;60644;55.858;37.390;2024-02-26T01:02:45;6.57;;;1.27;;
72601;SDS011;60644;55.858;37.390;2024-02-26T01:05:13;6.63;;;1.50;;
72601;SDS011;60644;55.858;37.390;2024-02-26T01:07:39;6.10;;;1.60;;
72601;SDS011;60644;55.858;37.390;2024-02-26T01:10:08;6.93;;;1.70;;
72601;SDS011;60644;55.858;37.390;2024-02-26T01:12:38;5.25;;;1.30;;
72601;SDS011;60644;55.858;37.390;2024-02-26T01:15:04;5.57;;;1.27;;
72601;SDS011;60644;55.858;37.390;2024-02-26T01:17:32;6.60;;;1.23;;
72601;SDS011;60644;55.858;37.390;2024-02-26T01:19:58;3.40;;;1.17;;
72601;SDS011;60644;55.858;37.390;2024-02-26T01:22:24;7.60;;;1.50;;
72601;SDS011;60644;55.858;37.390;2024-02-26T01:24:50;5.40;;;1.40;;
72601;SDS011;60644;55.858;37.390;2024-02-26T01:27:16;5.30;;;1.40;;
72601;SDS011;60644;55.858;37.390;2024-02-26T01:29:41;5.03;;;1.40;;
72601;SDS011;60644;55.858;37.390;2024-02-26T01:32:07;7.82;;;1.02;;
72601;SDS011;60644;55.858;37.390;2024-02-26T01:34:33;5.87;;;1.60;;
72601;SDS011;60644;55.858;37.390;2024-02-26T01:36:59;4.85;;;1.20;;
72601;SDS011;60644;55.858;37.390;2024-02-26T01:39:25;6.03;;;1.80;;
72601;SDS011;60644;55.858;37.390;2024-02-26T01:41:50;6.32;;;1.95;;
72601;SDS011;60644;55.858;37.390;2024-02-26T01:44:16;9.23;;;1.97;;
72601;SDS011;60644;55.858;37.390;2024-02-26T01:46:44;3.85;;;1.30;;
72601;SDS011;60644;55.858;37.390;2024-02-26T01:49:13;6.40;;;1.67;;
72601;SDS011;60644;55.858;37.390;2024-02-26T01:51:39;4.60;;;1.27;;
72601;SDS011;60644;55.858;37.390;2024-02-26T01:54:05;5.60;;;1.38;;
72601;SDS011;60644;55.858;37.390;2024-02-26T01:56:31;4.00;;;0.77;;
72601;SDS011;60644;55.858;37.390;2024-02-26T01:58:58;5.90;;;1.40;;
72601;SDS011;60644;55.858;37.390;2024-02-26T02:01:27;6.68;;;1.60;;
72601;SDS011;60644;55.858;37.390;2024-02-26T02:03:54;4.07;;;0.93;;
72601;SDS011;60644;55.858;37.390;2024-02-26T02:06:20;7.00;;;1.60;;
72601;SDS011;60644;55.858;37.390;2024-02-26T02:08:46;4.45;;;1.15;;
72601;SDS011;60644;55.858;37.390;2024-02-26T02:11:12;5.03;;;1.08;;
72601;SDS011;60644;55.858;37.390;2024-02-26T02:13:40;5.10;;;1.10;;
72601;SDS011;60644;55.858;37.390;2024-02-26T02:16:07;3.95;;;0.95;;
72601;SDS011;60644;55.858;37.390;2024-02-26T02:18:36;6.45;;;0.95;;
72601;SDS011;60644;55.858;37.390;2024-02-26T02:21:01;7.97;;;1.80;;
72601;SDS011;60644;55.858;37.390;2024-02-26T02:23:28;7.18;;;1.23;;
72601;SDS011;60644;55.858;37.390;2024-02-26T02:25:54;5.55;;;1.13;;
72601;SDS011;60644;55.858;37.390;2024-02-26T02:28:23;4.50;;;0.95;;
72601;SDS011;60644;55.858;37.390;2024-02-26T02:30:49;4.93;;;1.27;;
72601;SDS011;60644;55.858;37.390;2024-02-26T02:33:15;3.67;;;0.63;;
72601;SDS011;60644;55.858;37.390;2024-02-26T02:35:41;6.03;;;1.10;;
72601;SDS011;60644;55.858;37.390;2024-02-26T02:38:07;6.00;;;1.33;;
72601;SDS011;60644;55.858;37.390;2024-02-26T02:40:32;6.17;;;1.13;;
72601;SDS011;60644;55.858;37.390;2024-02-26T02:42:58;6.13;;;1.25;;
72601;SDS011;60644;55.858;37.390;2024-02-26T02:45:25;4.75;;;0.95;;
72601;SDS011;60644;55.858;37.390;2024-02-26T02:47:51;4.57;;;1.07;;
72601;SDS011;60644;55.858;37.390;2024-02-26T02:50:16;2.95;;;0.50;;
72601;SDS011;60644;55.858;37.390;2024-02-26T02:52:42;4.77;;;0.97;;
72601;SDS011;60644;55.858;37.390;2024-02-26T02:55:11;4.95;;;0.90;;
72601;SDS011;60644;55.858;37.390;2024-02-26T02:57:36;4.43;;;0.88;;
72601;SDS011;60644;55.858;37.390;2024-02-26T03:00:07;6.17;;;0.97;;
72601;SDS011;60644;55.858;37.390;2024-02-26T03:02:33;5.78;;;1.13;;
72601;SDS011;60644;55.858;37.390;2024-02-26T03:05:04;5.82;;;0.95;;
72601;SDS011;60644;55.858;37.390;2024-02-26T03:07:30;4.85;;;0.90;;
72601;SDS011;60644;55.858;37.390;2024-02-26T03:09:56;4.77;;;0.97;;
72601;SDS011;60644;55.858;37.390;2024-02-26T03:12:22;8.88;;;1.27;;
72601;SDS011;60644;55.858;37.390;2024-02-26T03:14:47;6.80;;;1.17;;
72601;SDS011;60644;55.858;37.390;2024-02-26T03:17:13;3.33;;;0.70;;
72601;SDS011;60644;55.858;37.390;2024-02-26T03:19:39;4.95;;;1.20;;
72601;SDS011;60644;55.858;37.390;2024-02-26T03:22:05;5.13;;;0.90;;
72601;SDS011;60644;55.858;37.390;2024-02-26T03:24:30;5.25;;;1.08;;
72601;SDS011;60644;55.858;37.390;2024-02-26T03:26:56;3.93;;;1.07;;
72601;SDS011;60644;55.858;37.390;2024-02-26T03:29:21;4.23;;;0.90;;
72601;SDS011;60644;55.858;37.390;2024-02-26T03:31:47;4.60;;;0.90;;
72601;SDS011;60644;55.858;37.390;2024-02-26T03:34:13;4.00;;;0.77;;
72601;SDS011;60644;55.858;37.390;2024-02-26T03:36:40;4.57;;;1.02;;
72601;SDS011;60644;55.858;37.390;2024-02-26T03:39:06;3.90;;;0.90;;
72601;SDS011;60644;55.858;37.390;2024-02-26T03:41:33;4.90;;;1.17;;
72601;SDS011;60644;55.858;37.390;2024-02-26T03:43:59;5.27;;;1.23;;
72601;SDS011;60644;55.858;37.390;2024-02-26T03:46:25;4.07;;;0.60;;
72601;SDS011;60644;55.858;37.390;2024-02-26T03:48:50;5.33;;;0.87;;
72601;SDS011;60644;55.858;37.390;2024-02-26T03:51:16;3.85;;;1.05;;
72601;SDS011;60644;55.858;37.390;2024-02-26T03:53:42;4.03;;;0.83;;
72601;SDS011;60644;55.858;37.390;2024-02-26T03:56:07;7.80;;;1.10;;
72601;SDS011;60644;55.858;37.390;2024-02-26T03:58:33;5.70;;;0.97;;
72601;SDS011;60644;55.858;37.390;2024-02-26T04:01:03;6.13;;;1.08;;
72601;SDS011;60644;55.858;37.390;2024-02-26T04:03:28;4.53;;;0.80;;
72601;SDS011;60644;55.858;37.390;2024-02-26T04:05:54;7.23;;;0.83;;
72601;SDS011;60644;55.858;37.390;2024-02-26T04:08:20;5.57;;;1.23;;
72601;SDS011;60644;55.858;37.390;2024-02-26T04:10:45;3.75;;;1.02;;
72601;SDS011;60644;55.858;37.390;2024-02-26T04:13:11;5.47;;;0.80;;
72601;SDS011;60644;55.858;37.390;2024-02-26T04:15:37;3.92;;;0.70;;
72601;SDS011;60644;55.858;37.390;2024-02-26T04:18:02;5.67;;;0.80;;
72601;SDS011;60644;55.858;37.390;2024-02-26T04:20:28;4.10;;;0.70;;
72601;SDS011;60644;55.858;37.390;2024-02-26T04:22:54;6.27;;;0.90;;
72601;SDS011;60644;55.858;37.390;2024-02-26T04:25:19;4.25;;;0.90;;
72601;SDS011;60644;55.858;37.390;2024-02-26T04:27:45;5.55;;;0.70;;
72601;SDS011;60644;55.858;37.390;2024-02-26T04:30:11;6.70;;;1.27;;
72601;SDS011;60644;55.858;37.390;2024-02-26T04:32:36;4.30;;;0.60;;
72601;SDS011;60644;55.858;37.390;2024-02-26T04:35:02;4.53;;;1.00;;
72601;SDS011;60644;55.858;37.390;2024-02-26T04:37:29;5.63;;;1.38;;
72601;SDS011;60644;55.858;37.390;2024-02-26T04:40:02;4.53;;;0.70;;
72601;SDS011;60644;55.858;37.390;2024-02-26T04:42:29;3.55;;;0.70;;
72601;SDS011;60644;55.858;37.390;2024-02-26T04:44:54;4.00;;;0.90;;
72601;SDS011;60644;55.858;37.390;2024-02-26T04:47:20;5.13;;;1.03;;
72601;SDS011;60644;55.858;37.390;2024-02-26T04:49:48;6.30;;;1.08;;
72601;SDS011;60644;55.858;37.390;2024-02-26T04:52:14;5.43;;;1.27;;
72601;SDS011;60644;55.858;37.390;2024-02-26T04:54:40;4.63;;;0.93;;
72601;SDS011;60644;55.858;37.390;2024-02-26T04:57:05;7.10;;;1.45;;
72601;SDS011;60644;55.858;37.390;2024-02-26T04:59:31;4.73;;;0.90;;
72601;SDS011;60644;55.858;37.390;2024-02-26T05:01:56;5.13;;;0.80;;
72601;SDS011;60644;55.858;37.390;2024-02-26T05:04:22;6.37;;;0.80;;
72601;SDS011;60644;55.858;37.390;2024-02-26T05:06:48;6.77;;;1.23;;
72601;SDS011;60644;55.858;37.390;2024-02-26T05:09:13;5.45;;;1.17;;
72601;SDS011;60644;55.858;37.390;2024-02-26T05:11:39;3.17;;;0.70;;
72601;SDS011;60644;55.858;37.390;2024-02-26T05:14:05;6.50;;;1.50;;
72601;SDS011;60644;55.858;37.390;2024-02-26T05:16:31;6.55;;;1.35;;
72601;SDS011;60644;55.858;37.390;2024-02-26T05:18:57;5.55;;;1.05;;
72601;SDS011;60644;55.858;37.390;2024-02-26T05:21:22;8.53;;;1.50;;
72601;SDS011;60644;55.858;37.390;2024-02-26T05:23:48;5.75;;;1.40;;
72601;SDS011;60644;55.858;37.390;2024-02-26T05:26:20;7.20;;;1.50;;
72601;SDS011;60644;55.858;37.390;2024-02-26T05:28:47;8.57;;;1.77;;
72601;SDS011;60644;55.858;37.390;2024-02-26T05:31:13;8.13;;;1.52;;
72601;SDS011;60644;55.858;37.390;2024-02-26T05:33:40;6.68;;;1.33;;
72601;SDS011;60644;55.858;37.390;2024-02-26T05:36:06;5.10;;;1.60;;
72601;SDS011;60644;55.858;37.390;2024-02-26T05:38:31;5.07;;;1.35;;
72601;SDS011;60644;55.858;37.390;2024-02-26T05:41:00;5.43;;;1.13;;
72601;SDS011;60644;55.858;37.390;2024-02-26T05:43:26;7.55;;;1.40;;
72601;SDS011;60644;55.858;37.390;2024-02-26T05:45:52;6.07;;;1.50;;
72601;SDS011;60644;55.858;37.390;2024-02-26T05:48:18;7.03;;;1.73;;
72601;SDS011;60644;55.858;37.390;2024-02-26T05:50:47;5.95;;;1.42;;
72601;SDS011;60644;55.858;37.390;2024-02-26T05:53:13;6.28;;;1.55;;
72601;SDS011;60644;55.858;37.390;2024-02-26T05:55:39;7.23;;;1.97;;
72601;SDS011;60644;55.858;37.390;2024-02-26T05:58:05;4.80;;;1.20;;
72601;SDS011;60644;55.858;37.390;2024-02-26T06:00:30;5.93;;;1.40;;
72601;SDS011;60644;55.858;37.390;2024-02-26T06:02:57;6.40;;;1.95;;
72601;SDS011;60644;55.858;37.390;2024-02-26T06:05:23;8.68;;;1.83;;
72601;SDS011;60644;55.858;37.390;2024-02-26T06:07:49;7.82;;;2.28;;
72601;SDS011;60644;55.858;37.390;2024-02-26T06:10:14;5.10;;;1.23;;
72601;SDS011;60644;55.858;37.390;2024-02-26T06:12:40;5.70;;;1.70;;
72601;SDS011;60644;55.858;37.390;2024-02-26T06:15:06;6.38;;;1.52;;
72601;SDS011;60644;55.858;37.390;2024-02-26T06:17:31;6.07;;;1.73;;
72601;SDS011;60644;55.858;37.390;2024-02-26T06:19:57;7.50;;;2.20;;
72601;SDS011;60644;55.858;37.390;2024-02-26T06:22:24;9.67;;;1.87;;
72601;SDS011;60644;55.858;37.390;2024-02-26T06:24:50;4.38;;;1.25;;
72601;SDS011;60644;55.858;37.390;2024-02-26T06:27:19;7.40;;;2.10;;
72601;SDS011;60644;55.858;37.390;2024-02-26T06:29:44;8.27;;;1.80;;
72601;SDS011;60644;55.858;37.390;2024-02-26T06:32:10;7.85;;;1.27;;
72601;SDS011;60644;55.858;37.390;2024-02-26T06:34:36;7.60;;;1.83;;
72601;SDS011;60644;55.858;37.390;2024-02-26T06:37:04;8.05;;;1.95;;
72601;SDS011;60644;55.858;37.390;2024-02-26T06:39:32;5.72;;;1.92;;
72601;SDS011;60644;55.858;37.390;2024-02-26T06:42:01;8.80;;;1.90;;
72601;SDS011;60644;55.858;37.390;2024-02-26T06:44:33;7.47;;;2.07;;
72601;SDS011;60644;55.858;37.390;2024-02-26T06:46:58;8.65;;;1.83;;
72601;SDS011;60644;55.858;37.390;2024-02-26T06:49:25;11.45;;;2.33;;
72601;SDS011;60644;55.858;37.390;2024-02-26T06:51:51;7.37;;;2.23;;
72601;SDS011;60644;55.858;37.390;2024-02-26T06:54:17;8.45;;;2.45;;
72601;SDS011;60644;55.858;37.390;2024-02-26T06:56:42;8.97;;;2.50;;
72601;SDS011;60644;55.858;37.390;2024-02-26T06:59:08;5.43;;;1.55;;
72601;SDS011;60644;55.858;37.390;2024-02-26T07:01:34;8.00;;;2.60;;
72601;SDS011;60644;55.858;37.390;2024-02-26T07:03:59;11.15;;;3.08;;
72601;SDS011;60644;55.858;37.390;2024-02-26T07:06:29;8.37;;;2.07;;
72601;SDS011;60644;55.858;37.390;2024-02-26T07:08:55;7.70;;;2.25;;
72601;SDS011;60644;55.858;37.390;2024-02-26T07:11:21;10.13;;;2.70;;
72601;SDS011;60644;55.858;37.390;2024-02-26T07:13:47;7.57;;;2.20;;
72601;SDS011;60644;55.858;37.390;2024-02-26T07:16:12;10.00;;;1.63;;
72601;SDS011;60644;55.858;37.390;2024-02-26T07:18:41;7.80;;;2.03;;
72601;SDS011;60644;55.858;37.390;2024-02-26T07:21:08;9.68;;;2.58;;
72601;SDS011;60644;55.858;37.390;2024-02-26T07:23:37;6.53;;;1.73;;
72601;SDS011;60644;55.858;37.390;2024-02-26T07:26:08;9.40;;;1.98;;
72601;SDS011;60644;55.858;37.390;2024-02-26T07:28:34;8.98;;;2.65;;
72601;SDS011;60644;55.858;37.390;2024-02-26T07:30:59;8.85;;;2.53;;
72601;SDS011;60644;55.858;37.390;2024-02-26T07:33:25;7.32;;;2.10;;
72601;SDS011;60644;55.858;37.390;2024-02-26T07:35:51;8.52;;;2.22;;
72601;SDS011;60644;55.858;37.390;2024-02-26T07:38:18;8.80;;;2.55;;
72601;SDS011;60644;55.858;37.390;2024-02-26T07:40:43;9.20;;;2.57;;
72601;SDS011;60644;55.858;37.390;2024-02-26T07:43:09;9.13;;;2.27;;
72601;SDS011;60644;55.858;37.390;2024-02-26T07:45:34;9.77;;;2.35;;
72601;SDS011;60644;55.858;37.390;2024-02-26T07:48:02;11.75;;;2.97;;
72601;SDS011;60644;55.858;37.390;2024-02-26T07:50:27;8.93;;;2.63;;
72601;SDS011;60644;55.858;37.390;2024-02-26T07:52:53;10.68;;;2.75;;
72601;SDS011;60644;55.858;37.390;2024-02-26T07:55:19;13.43;;;3.30;;
72601;SDS011;60644;55.858;37.390;2024-02-26T07:57:44;9.43;;;2.45;;
72601;SDS011;60644;55.858;37.390;2024-02-26T08:00:10;11.40;;;2.90;;
72601;SDS011;60644;55.858;37.390;2024-02-26T08:02:42;5.90;;;1.45;;
72601;SDS011;60644;55.858;37.390;2024-02-26T08:05:09;8.40;;;2.30;;
72601;SDS011;60644;55.858;37.390;2024-02-26T08:07:34;9.23;;;2.83;;
72601;SDS011;60644;55.858;37.390;2024-02-26T08:10:00;8.05;;;2.72;;
72601;SDS011;60644;55.858;37.390;2024-02-26T08:12:28;7.57;;;3.13;;
72601;SDS011;60644;55.858;37.390;2024-02-26T08:14:54;9.27;;;2.80;;
72601;SDS011;60644;55.858;37.390;2024-02-26T08:17:21;8.65;;;2.92;;
72601;SDS011;60644;55.858;37.390;2024-02-26T08:19:46;8.50;;;2.83;;
72601;SDS011;60644;55.858;37.390;2024-02-26T08:22:13;12.20;;;3.28;;
72601;SDS011;60644;55.858;37.390;2024-02-26T08:24:44;8.63;;;2.58;;
72601;SDS011;60644;55.858;37.390;2024-02-26T08:27:10;7.88;;;2.50;;
72601;SDS011;60644;55.858;37.390;2024-02-26T08:29:36;10.53;;;2.73;;
72601;SDS011;60644;55.858;37.390;2024-02-26T08:32:02;12.13;;;4.55;;
72601;SDS011;60644;55.858;37.390;2024-02-26T08:34:28;8.55;;;2.83;;
72601;SDS011;60644;55.858;37.390;2024-02-26T08:36:53;9.02;;;3.13;;
72601;SDS011;60644;55.858;37.390;2024-02-26T08:39:19;8.50;;;2.80;;
72601;SDS011;60644;55.858;37.390;2024-02-26T08:41:46;9.32;;;2.60;;
72601;SDS011;60644;55.858;37.390;2024-02-26T08:44:11;7.15;;;2.60;;
72601;SDS011;60644;55.858;37.390;2024-02-26T08:46:37;9.73;;;2.73;;
72601;SDS011;60644;55.858;37.390;2024-02-26T08:49:03;8.07;;;2.58;;
72601;SDS011;60644;55.858;37.390;2024-02-26T08:51:29;10.40;;;3.20;;
72601;SDS011;60644;55.858;37.390;2024-02-26T08:53:55;13.57;;;2.25;;
72601;SDS011;60644;55.858;37.390;2024-02-26T08:56:20;7.10;;;2.33;;
72601;SDS011;60644;55.858;37.390;2024-02-26T08:58:47;9.32;;;2.42;;
72601;SDS011;60644;55.858;37.390;2024-02-26T09:01:19;8.77;;;2.40;;
72601;SDS011;60644;55.858;37.390;2024-02-26T09:03:47;9.15;;;2.53;;
72601;SDS011;60644;55.858;37.390;2024-02-26T09:06:18;7.27;;;2.00;;
72601;SDS011;60644;55.858;37.390;2024-02-26T09:08:44;9.15;;;2.75;;
72601;SDS011;60644;55.858;37.390;2024-02-26T09:11:09;8.33;;;2.23;;
72601;SDS011;60644;55.858;37.390;2024-02-26T09:13:35;10.43;;;3.25;;
72601;SDS011;60644;55.858;37.390;2024-02-26T09:16:08;7.55;;;2.50;;
72601;SDS011;60644;55.858;37.390;2024-02-26T09:18:35;8.10;;;1.80;;
72601;SDS011;60644;55.858;37.390;2024-02-26T09:21:04;12.10;;;2.70;;
72601;SDS011;60644;55.858;37.390;2024-02-26T09:23:29;8.07;;;2.40;;
72601;SDS011;60644;55.858;37.390;2024-02-26T09:25:57;9.13;;;2.58;;
72601;SDS011;60644;55.858;37.390;2024-02-26T09:28:25;9.20;;;2.87;;
72601;SDS011;60644;55.858;37.390;2024-02-26T09:30:52;6.95;;;2.28;;
72601;SDS011;60644;55.858;37.390;2024-02-26T09:33:19;7.70;;;2.38;;
72601;SDS011;60644;55.858;37.390;2024-02-26T09:35:44;8.02;;;3.00;;
72601;SDS011;60644;55.858;37.390;2024-02-26T09:38:10;10.70;;;2.33;;
72601;SDS011;60644;55.858;37.390;2024-02-26T09:40:36;9.67;;;2.87;;
72601;SDS011;60644;55.858;37.390;2024-02-26T09:43:03;8.40;;;3.10;;
72601;SDS011;60644;55.858;37.390;2024-02-26T09:45:30;9.18;;;2.92;;
72601;SDS011;60644;55.858;37.390;2024-02-26T09:47:56;9.27;;;2.67;;
72601;SDS011;60644;55.858;37.390;2024-02-26T09:50:22;10.07;;;2.70;;
72601;SDS011;60644;55.858;37.390;2024-02-26T09:52:48;10.03;;;2.90;;
72601;SDS011;60644;55.858;37.390;2024-02-26T09:57:51;8.52;;;3.00;;
72601;SDS011;60644;55.858;37.390;2024-02-26T10:00:20;8.43;;;2.70;;
72601;SDS011;60644;55.858;37.390;2024-02-26T10:02:46;7.20;;;2.08;;
72601;SDS011;60644;55.858;37.390;2024-02-26T10:05:18;7.85;;;2.70;;
72601;SDS011;60644;55.858;37.390;2024-02-26T10:07:45;9.20;;;2.80;;
72601;SDS011;60644;55.858;37.390;2024-02-26T10:10:12;6.93;;;2.20;;
72601;SDS011;60644;55.858;37.390;2024-02-26T10:12:38;7.50;;;2.00;;
72601;SDS011;60644;55.858;37.390;2024-02-26T10:15:04;12.30;;;3.35;;
72601;SDS011;60644;55.858;37.390;2024-02-26T10:17:30;9.63;;;2.92;;
72601;SDS011;60644;55.858;37.390;2024-02-26T10:20:10;8.50;;;2.80;;
72601;SDS011;60644;55.858;37.390;2024-02-26T10:22:36;10.85;;;2.72;;
72601;SDS011;60644;55.858;37.390;2024-02-26T10:25:02;7.47;;;2.17;;
72601;SDS011;60644;55.858;37.390;2024-02-26T10:27:29;7.45;;;2.47;;
72601;SDS011;60644;55.858;37.390;2024-02-26T10:29:56;6.18;;;1.88;;
72601;SDS011;60644;55.858;37.390;2024-02-26T10:32:22;7.10;;;1.40;;
72601;SDS011;60644;55.858;37.390;2024-02-26T10:34:55;10.10;;;3.08;;
72601;SDS011;60644;55.858;37.390;2024-02-26T10:37:22;8.45;;;2.53;;
72601;SDS011;60644;55.858;37.390;2024-02-26T10:39:47;7.35;;;2.25;;
72601;SDS011;60644;55.858;37.390;2024-02-26T10:42:15;8.48;;;2.17;;
72601;SDS011;60644;55.858;37.390;2024-02-26T10:44:43;8.33;;;3.10;;
72601;SDS011;60644;55.858;37.390;2024-02-26T10:47:10;9.75;;;2.65;;
72601;SDS011;60644;55.858;37.390;2024-02-26T10:49:36;8.18;;;2.60;;
72601;SDS011;60644;55.858;37.390;2024-02-26T10:52:02;7.47;;;2.13;;
72601;SDS011;60644;55.858;37.390;2024-02-26T10:54:32;7.43;;;2.53;;
72601;SDS011;60644;55.858;37.390;2024-02-26T10:57:10;10.77;;;2.63;;
72601;SDS011;60644;55.858;37.390;2024-02-26T10:59:36;9.25;;;2.67;;
72601;SDS011;60644;55.858;37.390;2024-02-26T11:02:03;8.07;;;2.40;;
72601;SDS011;60644;55.858;37.390;2024-02-26T11:04:29;9.97;;;2.40;;
72601;SDS011;60644;55.858;37.390;2024-02-26T11:06:57;7.72;;;2.20;;
72601;SDS011;60644;55.858;37.390;2024-02-26T11:09:22;7.88;;;2.22;;
72601;SDS011;60644;55.858;37.390;2024-02-26T11:11:48;9.02;;;2.38;;
72601;SDS011;60644;55.858;37.390;2024-02-26T11:14:15;7.03;;;2.00;;
72601;SDS011;60644;55.858;37.390;2024-02-26T11:16:42;6.87;;;2.17;;
72601;SDS011;60644;55.858;37.390;2024-02-26T11:19:11;9.10;;;2.25;;
72601;SDS011;60644;55.858;37.390;2024-02-26T11:21:39;9.82;;;2.88;;
72601;SDS011;60644;55.858;37.390;2024-02-26T11:24:13;6.68;;;2.05;;
72601;SDS011;60644;55.858;37.390;2024-02-26T11:26:43;8.07;;;2.15;;
72601;SDS011;60644;55.858;37.390;2024-02-26T11:29:12;10.20;;;2.60;;
72601;SDS011;60644;55.858;37.390;2024-02-26T11:31:39;10.98;;;2.72;;
72601;SDS011;60644;55.858;37.390;2024-02-26T11:34:06;9.30;;;2.90;;
72601;SDS011;60644;55.858;37.390;2024-02-26T11:36:32;8.70;;;2.30;;
72601;SDS011;60644;55.858;37.390;2024-02-26T11:38:58;8.23;;;2.50;;
72601;SDS011;60644;55.858;37.390;2024-02-26T11:41:24;11.07;;;2.70;;
72601;SDS011;60644;55.858;37.390;2024-02-26T11:43:53;9.98;;;2.72;;
72601;SDS011;60644;55.858;37.390;2024-02-26T11:46:26;8.53;;;2.37;;
72601;SDS011;60644;55.858;37.390;2024-02-26T11:49:01;8.93;;;2.75;;
72601;SDS011;60644;55.858;37.390;2024-02-26T11:51:27;9.98;;;3.00;;
72601;SDS011;60644;55.858;37.390;2024-02-26T11:53:55;11.82;;;2.78;;
72601;SDS011;60644;55.858;37.390;2024-02-26T11:56:25;8.77;;;2.75;;
72601;SDS011;60644;55.858;37.390;2024-02-26T11:59:10;9.37;;;3.10;;
72601;SDS011;60644;55.858;37.390;2024-02-26T12:01:36;10.35;;;2.97;;
72601;SDS011;60644;55.858;37.390;2024-02-26T12:04:04;9.15;;;2.78;;
72601;SDS011;60644;55.858;37.390;2024-02-26T12:06:30;8.15;;;2.40;;
72601;SDS011;60644;55.858;37.390;2024-02-26T12:08:55;7.63;;;2.20;;
72601;SDS011;60644;55.858;37.390;2024-02-26T12:11:27;8.68;;;2.17;;
72601;SDS011;60644;55.858;37.390;2024-02-26T12:13:52;8.50;;;3.08;;
72601;SDS011;60644;55.858;37.390;2024-02-26T12:16:39;7.43;;;1.97;;
72601;SDS011;60644;55.858;37.390;2024-02-26T12:19:05;13.70;;;3.22;;
72601;SDS011;60644;55.858;37.390;2024-02-26T12:21:35;10.63;;;2.75;;
72601;SDS011;60644;55.858;37.390;2024-02-26T12:24:14;9.93;;;2.70;;
72601;SDS011;60644;55.858;37.390;2024-02-26T12:26:43;9.63;;;3.10;;
72601;SDS011;60644;55.858;37.390;2024-02-26T12:29:09;9.48;;;2.80;;
72601;SDS011;60644;55.858;37.390;2024-02-26T12:31:36;6.50;;;2.30;;
72601;SDS011;60644;55.858;37.390;2024-02-26T12:34:03;9.97;;;2.87;;
72601;SDS011;60644;55.858;37.390;2024-02-26T12:36:29;13.82;;;3.53;;
72601;SDS011;60644;55.858;37.390;2024-02-26T12:38:55;10.65;;;2.80;;
72601;SDS011;60644;55.858;37.390;2024-02-26T12:41:23;12.15;;;3.03;;
72601;SDS011;60644;55.858;37.390;2024-02-26T12:43:49;8.27;;;2.50;;
72601;SDS011;60644;55.858;37.390;2024-02-26T12:46:15;8.52;;;2.47;;
72601;SDS011;60644;55.858;37.390;2024-02-26T12:48:46;7.67;;;2.70;;
72601;SDS011;60644;55.858;37.390;2024-02-26T12:51:12;8.18;;;2.38;;
72601;SDS011;60644;55.858;37.390;2024-02-26T12:53:38;9.93;;;3.22;;
72601;SDS011;60644;55.858;37.390;2024-02-26T12:56:04;10.25;;;2.15;;
72601;SDS011;60644;55.858;37.390;2024-02-26T12:58:30;9.13;;;2.90;;
72601;SDS011;60644;55.858;37.390;2024-02-26T13:00:56;9.07;;;2.70;;
72601;SDS011;60644;55.858;37.390;2024-02-26T13:03:22;8.73;;;2.60;;
72601;SDS011;60644;55.858;37.390;2024-02-26T13:05:48;13.57;;;2.45;;
72601;SDS011;60644;55.858;37.390;2024-02-26T13:08:18;9.23;;;2.05;;
72601;SDS011;60644;55.858;37.390;2024-02-26T13:10:45;7.83;;;2.37;;
72601;SDS011;60644;55.858;37.390;2024-02-26T13:13:11;13.73;;;3.25;;
72601;SDS011;60644;55.858;37.390;2024-02-26T13:15:36;11.15;;;3.72;;
72601;SDS011;60644;55.858;37.390;2024-02-26T13:18:09;9.93;;;2.63;;
72601;SDS011;60644;55.858;37.390;2024-02-26T13:20:34;7.25;;;2.13;;
72601;SDS011;60644;55.858;37.390;2024-02-26T13:23:05;9.40;;;2.50;;
72601;SDS011;60644;55.858;37.390;2024-02-26T13:25:31;7.67;;;2.50;;
72601;SDS011;60644;55.858;37.390;2024-02-26T13:28:06;8.23;;;2.13;;
72601;SDS011;60644;55.858;37.390;2024-02-26T13:30:33;8.00;;;2.30;;
72601;SDS011;60644;55.858;37.390;2024-02-26T13:33:06;8.50;;;2.20;;
72601;SDS011;60644;55.858;37.390;2024-02-26T13:35:32;8.02;;;2.53;;
72601;SDS011;60644;55.858;37.390;2024-02-26T13:38:00;9.95;;;2.33;;
72601;SDS011;60644;55.858;37.390;2024-02-26T13:40:34;8.38;;;2.40;;
72601;SDS011;60644;55.858;37.390;2024-02-26T13:43:00;10.70;;;2.70;;
72601;SDS011;60644;55.858;37.390;2024-02-26T13:45:28;9.77;;;2.33;;
72601;SDS011;60644;55.858;37.390;2024-02-26T13:48:04;11.32;;;2.78;;
72601;SDS011;60644;55.858;37.390;2024-02-26T13:50:30;10.03;;;3.10;;
72601;SDS011;60644;55.858;37.390;2024-02-26T13:53:16;8.55;;;2.83;;
72601;SDS011;60644;55.858;37.390;2024-02-26T13:55:51;12.27;;;2.72;;
72601;SDS011;60644;55.858;37.390;2024-02-26T13:58:17;9.90;;;2.40;;
72601;SDS011;60644;55.858;37.390;2024-02-26T14:00:48;7.35;;;1.60;;
72601;SDS011;60644;55.858;37.390;2024-02-26T14:03:13;10.32;;;3.00;;
72601;SDS011;60644;55.858;37.390;2024-02-26T14:05:39;9.47;;;2.33;;
72601;SDS011;60644;55.858;37.390;2024-02-26T14:08:08;12.10;;;2.83;;
72601;SDS011;60644;55.858;37.390;2024-02-26T14:10:36;11.43;;;2.60;;
72601;SDS011;60644;55.858;37.390;2024-02-26T14:13:03;8.75;;;2.17;;
72601;SDS011;60644;55.858;37.390;2024-02-26T14:15:31;10.00;;;2.50;;
72601;SDS011;60644;55.858;37.390;2024-02-26T14:18:00;8.95;;;2.03;;
72601;SDS011;60644;55.858;37.390;2024-02-26T14:20:31;10.00;;;2.55;;
72601;SDS011;60644;55.858;37.390;2024-02-26T14:22:57;8.00;;;2.37;;
72601;SDS011;60644;55.858;37.390;2024-02-26T14:25:23;8.30;;;2.20;;
72601;SDS011;60644;55.858;37.390;2024-02-26T14:27:49;8.32;;;2.65;;
72601;SDS011;60644;55.858;37.390;2024-02-26T14:30:15;7.05;;;2.45;;
72601;SDS011;60644;55.858;37.390;2024-02-26T14:32:41;8.23;;;2.43;;
72601;SDS011;60644;55.858;37.390;2024-02-26T14:35:07;10.23;;;2.38;;